< < Back
Terminal Aerodrome Forecast


Current Version              Previous Versions:   1  2  3  4  5  6  7  8  9  

Terminal Aerodrome Forecast

628
FTUS42 KGSP 291431 AAA
TAFCLT
TAF AMD
KCLT 291431Z 2915/3012 02006KT P6SM FEW050 BKN150
     FM291700 04008KT P6SM FEW050 SCT250
     FM292300 05006KT P6SM SCT250
     FM300400 06003KT P6SM SCT200=



Latest METAR

257
SAUS70 KWBC 300356
MTRCLT
METAR KCLT 300352Z 06005KT 10SM FEW180 SCT250 26/17 A3012 RMK AO2 SLP190
T02560167


USA.gov is the U.S. government's official web portal to all federal, state and local government web resources and services.